New Delhi, Illinois
Current Conditions -  °F | °C
As of 11:54 PM on Thursday 18 Dec 2014 (Local Time) from KSET Reporting Station
Overcast Overcast  
Wind Chill: 32°   Ceiling: 3000
Heat Index: 32°   Visibility: 9mi
Dew Point: 27°   Wind: 3mph
Humidity: 82%   Direction: 30°NNE
Pressure: 30.3"   Gusts: NA
Location:  39.1259°N, 90.3475°W
Report Text: KSET 190554Z AUTO 03003KT 9SM OVC030 00/M03 A3030 RMK AO2 SLP264 T00001028 10006 20000 400171017 50005
Loading
Personal Weather Stations






























Interactive Weather Map New forecast layout! Learn more

10-Day Weather Forecast

Advertisements
Track Severe Weather on mobile